createdAt,value
2023-08-14T00:01:39.163Z,100786.97
2023-08-14T00:04:41.783Z,100772.44
2023-08-14T00:07:43.949Z,100784.63
2023-08-14T00:10:46.491Z,100787.50
2023-08-14T00:13:49.486Z,100787.50
2023-08-14T00:16:51.638Z,100783.41
2023-08-14T00:19:54.036Z,100774.31
2023-08-14T00:22:56.322Z,100785.44
2023-08-14T00:25:58.611Z,100791.31
2023-08-14T00:29:00.913Z,100782.19
2023-08-14T00:32:03.308Z,100782.84
2023-08-14T00:35:06.189Z,100788.59
2023-08-14T00:38:08.467Z,100780.13
2023-08-14T00:41:10.810Z,100785.69
2023-08-14T00:44:13.887Z,100788.38
2023-08-14T00:47:16.315Z,100785.84
2023-08-14T00:50:19.856Z,100790.91
2023-08-14T00:53:23.952Z,100790.22
2023-08-14T00:56:29.288Z,100785.13
2023-08-14T00:59:33.604Z,100793.22
2023-08-14T01:02:36.168Z,100792.22
2023-08-14T01:05:39.845Z,100788.00
2023-08-14T01:08:42.743Z,100798.44
2023-08-14T01:11:55.940Z,100795.19
2023-08-14T01:15:03.534Z,100785.84
2023-08-14T01:18:06.062Z,100794.25
2023-08-14T01:21:12.458Z,100790.72
2023-08-14T01:24:23.545Z,100798.66
2023-08-14T01:27:26.039Z,100793.94
2023-08-14T01:30:28.720Z,100793.63
2023-08-14T01:33:31.100Z,100796.47
2023-08-14T01:36:41.075Z,100788.34
2023-08-14T01:39:48.500Z,100778.03
2023-08-14T01:42:55.053Z,100783.91
2023-08-14T01:45:58.065Z,100780.34
2023-08-14T01:49:00.630Z,100786.44
2023-08-14T01:52:03.490Z,100785.59
2023-08-14T01:55:06.292Z,100785.41
2023-08-14T01:58:08.573Z,100792.81
2023-08-14T02:01:11.404Z,100792.25
2023-08-14T02:04:13.583Z,100795.13
2023-08-14T02:07:15.763Z,100798.81
2023-08-14T02:10:18.166Z,100800.84
2023-08-14T02:13:20.443Z,100801.16
2023-08-14T02:16:22.889Z,100805.16
2023-08-14T02:19:25.207Z,100800.09
2023-08-14T02:22:27.579Z,100794.69
2023-08-14T02:25:29.958Z,100791.31
2023-08-14T02:28:32.293Z,100802.44
2023-08-14T02:31:34.583Z,100799.72
2023-08-14T02:34:46.186Z,100803.59
2023-08-14T02:37:48.444Z,100804.19
2023-08-14T02:40:51.729Z,100801.69
2023-08-14T02:43:54.418Z,100797.75
2023-08-14T02:46:57.868Z,100800.28
2023-08-14T02:50:00.155Z,100797.19
2023-08-14T02:53:02.562Z,100797.91
2023-08-14T02:56:04.960Z,100808.97
2023-08-14T02:59:07.360Z,100805.41
2023-08-14T03:02:09.771Z,100809.69
2023-08-14T03:05:12.095Z,100809.69
2023-08-14T03:08:14.371Z,100823.59
2023-08-14T03:11:16.762Z,100822.22
2023-08-14T03:14:19.061Z,100823.06
2023-08-14T03:17:21.515Z,100828.75
2023-08-14T03:20:23.796Z,100818.81
2023-08-14T03:23:27.052Z,100827.22
2023-08-14T03:26:29.320Z,100827.69
2023-08-14T03:29:32.745Z,100823.16
2023-08-14T03:32:35.298Z,100822.97
2023-08-14T03:35:39.832Z,100826.00
2023-08-14T03:38:42.633Z,100834.22
2023-08-14T03:41:45.830Z,100826.31
2023-08-14T03:44:51.467Z,100836.22
2023-08-14T03:47:54.118Z,100830.16
2023-08-14T03:50:56.398Z,100831.38
2023-08-14T03:53:58.696Z,100829.75
2023-08-14T03:57:01.075Z,100832.50
2023-08-14T04:00:04.182Z,100843.72
2023-08-14T04:03:15.040Z,100843.09
2023-08-14T04:06:17.286Z,100839.06
2023-08-14T04:09:19.621Z,100843.16
2023-08-14T04:12:21.888Z,100845.22
2023-08-14T04:15:24.443Z,100849.69
2023-08-14T04:18:27.840Z,100851.38
2023-08-14T04:21:30.083Z,100861.50
2023-08-14T04:24:32.317Z,100862.25
2023-08-14T04:27:38.702Z,100857.63
2023-08-14T04:30:41.134Z,100863.44
2023-08-14T04:33:43.493Z,100862.19
2023-08-14T04:36:45.950Z,100860.22
2023-08-14T04:39:49.369Z,100860.25
2023-08-14T04:42:51.705Z,100865.00
2023-08-14T04:45:54.067Z,100865.72
2023-08-14T04:48:56.354Z,100858.69
2023-08-14T04:52:00.126Z,100862.41
2023-08-14T04:55:02.546Z,100856.78
2023-08-14T04:58:09.535Z,100860.16
2023-08-14T05:01:12.768Z,100858.31
2023-08-14T05:04:16.283Z,100860.72
2023-08-14T05:07:18.562Z,100858.00
2023-08-14T05:10:20.746Z,100876.06
2023-08-14T05:13:23.232Z,100874.75
2023-08-14T05:16:26.359Z,100870.34
2023-08-14T05:19:28.821Z,100873.66
2023-08-14T05:22:31.179Z,100871.63
2023-08-14T05:25:33.524Z,100870.22
2023-08-14T05:28:35.905Z,100866.75
2023-08-14T05:31:38.365Z,100868.00
2023-08-14T05:34:40.594Z,100866.53
2023-08-14T05:37:43.097Z,100874.88
2023-08-14T05:40:45.454Z,100870.66
2023-08-14T05:43:47.827Z,100864.72
2023-08-14T05:46:50.216Z,100864.25
2023-08-14T05:49:52.469Z,100875.03
2023-08-14T05:53:00.376Z,100869.88
2023-08-14T05:56:02.675Z,100876.81
2023-08-14T05:59:04.912Z,100864.94
2023-08-14T06:02:07.148Z,100880.66
2023-08-14T06:05:10.067Z,100876.41
2023-08-14T06:08:12.384Z,100870.50
2023-08-14T06:11:14.536Z,100872.06
2023-08-14T06:14:17.892Z,100878.88
2023-08-14T06:17:20.185Z,100883.03
2023-08-14T06:20:22.652Z,100894.34
2023-08-14T06:23:24.955Z,100887.66
2023-08-14T06:26:27.362Z,100898.66
2023-08-14T06:29:29.586Z,100885.31
2023-08-14T06:32:31.899Z,100887.63
2023-08-14T06:35:34.079Z,100892.38
2023-08-14T06:38:36.486Z,100885.59
2023-08-14T06:41:38.796Z,100885.06
2023-08-14T06:44:41.787Z,100882.19
2023-08-14T06:47:45.852Z,100893.09
2023-08-14T06:50:48.238Z,100887.50
2023-08-14T06:53:50.646Z,100885.16
2023-08-14T06:56:53.526Z,100894.88
2023-08-14T06:59:55.955Z,100896.44
2023-08-14T07:02:58.289Z,100891.72
2023-08-14T07:06:00.641Z,100905.78
2023-08-14T07:09:03.140Z,100906.50
2023-08-14T07:12:05.801Z,100899.13
2023-08-14T07:15:12.027Z,100902.91
2023-08-14T07:18:19.482Z,100889.56
2023-08-14T07:21:21.767Z,100882.06
2023-08-14T07:24:25.478Z,100892.84
2023-08-14T07:27:27.851Z,100895.56
2023-08-14T07:30:30.119Z,100882.59
2023-08-14T07:33:32.510Z,100886.53
2023-08-14T07:36:37.523Z,100885.38
2023-08-14T07:39:40.432Z,100895.72
2023-08-14T07:42:42.770Z,100890.19
2023-08-14T07:45:45.206Z,100887.56
2023-08-14T07:48:47.567Z,100874.44
2023-08-14T07:51:50.414Z,100884.88
2023-08-14T07:54:52.775Z,100875.81
2023-08-14T07:57:55.356Z,100867.94
2023-08-14T08:00:57.645Z,100878.22
2023-08-14T08:04:00.573Z,100875.44
2023-08-14T08:07:05.825Z,100874.81
2023-08-14T08:10:09.044Z,100885.84
2023-08-14T08:13:11.362Z,100870.72
2023-08-14T08:16:13.740Z,100875.94
2023-08-14T08:19:16.428Z,100881.03
2023-08-14T08:22:19.120Z,100877.28
2023-08-14T08:25:21.832Z,100877.59
2023-08-14T08:28:24.172Z,100882.06
2023-08-14T08:31:26.642Z,100885.81
2023-08-14T08:34:29.005Z,100883.88
2023-08-14T08:37:31.325Z,100879.59
2023-08-14T08:40:33.952Z,100878.31
2023-08-14T08:43:36.449Z,100889.06
2023-08-14T08:46:44.494Z,100884.63
2023-08-14T08:49:47.397Z,100891.69
2023-08-14T08:52:51.713Z,100889.56
2023-08-14T08:55:54.692Z,100889.97
2023-08-14T08:58:57.016Z,100896.19
2023-08-14T09:01:59.309Z,100885.91
2023-08-14T09:05:01.882Z,100889.84
2023-08-14T09:08:04.710Z,100879.63
2023-08-14T09:11:07.356Z,100881.09
2023-08-14T09:14:09.758Z,100874.81
2023-08-14T09:17:14.072Z,100874.19
2023-08-14T09:20:20.131Z,100870.34
2023-08-14T09:23:35.891Z,100875.44
2023-08-14T09:26:38.320Z,100868.75
2023-08-14T09:29:40.715Z,100874.19
2023-08-14T09:32:43.363Z,100865.34
2023-08-14T09:35:53.508Z,100861.75
2023-08-14T09:38:56.419Z,100871.63
2023-08-14T09:41:59.127Z,100864.94
2023-08-14T09:45:03.134Z,100867.50
2023-08-14T09:48:06.023Z,100863.38
2023-08-14T09:51:12.949Z,100862.63
2023-08-14T09:54:15.219Z,100850.31
2023-08-14T09:57:18.504Z,100856.47
2023-08-14T10:00:21.008Z,100858.22
2023-08-14T10:03:24.101Z,100863.72
2023-08-14T10:06:27.222Z,100866.72
2023-08-14T10:09:29.731Z,100858.59
2023-08-14T10:12:36.988Z,100851.69
2023-08-14T10:15:47.842Z,100850.03
2023-08-14T10:18:51.073Z,100854.25
2023-08-14T10:21:54.806Z,100848.78
2023-08-14T10:24:57.210Z,100842.91
2023-08-14T10:27:59.840Z,100842.75
2023-08-14T10:31:02.884Z,100845.53
2023-08-14T10:34:05.733Z,100836.69
2023-08-14T10:37:07.991Z,100839.22
2023-08-14T10:40:24.132Z,100833.38
2023-08-14T10:43:27.678Z,100830.44
2023-08-14T10:46:30.109Z,100831.69
2023-08-14T10:49:46.181Z,100828.13
2023-08-14T10:52:49.608Z,100821.22
2023-08-14T10:55:52.629Z,100821.44
2023-08-14T10:58:55.063Z,100812.38
2023-08-14T11:02:27.288Z,100810.69
2023-08-14T11:05:39.067Z,100798.09
2023-08-14T11:08:46.057Z,100801.47
2023-08-14T11:11:56.495Z,100795.38
2023-08-14T11:14:58.931Z,100797.50
2023-08-14T11:18:02.433Z,100792.66
2023-08-14T11:21:23.595Z,100797.28
2023-08-14T11:24:27.424Z,100794.34
2023-08-14T11:27:29.897Z,100788.88
2023-08-14T11:30:34.791Z,100788.88
2023-08-14T11:33:37.393Z,100793.31
2023-08-14T11:36:43.515Z,100793.13
2023-08-14T11:39:46.148Z,100787.25
2023-08-14T11:42:48.653Z,100788.50
2023-08-14T11:45:51.093Z,100780.13
2023-08-14T11:48:53.769Z,100778.22
2023-08-14T11:51:56.200Z,100774.66
2023-08-14T11:54:59.166Z,100775.91
2023-08-14T11:58:01.760Z,100773.19
2023-08-14T12:01:04.517Z,100766.66
2023-08-14T12:04:08.254Z,100775.28
2023-08-14T12:07:10.953Z,100771.28
2023-08-14T12:10:16.284Z,100771.09
2023-08-14T12:13:21.351Z,100768.34
2023-08-14T12:16:26.181Z,100762.47
2023-08-14T12:19:31.165Z,100770.03
2023-08-14T12:22:33.475Z,100767.50
2023-08-14T12:25:35.717Z,100756.59
2023-08-14T12:28:37.884Z,100758.69
2023-08-14T12:31:40.572Z,100759.09
2023-08-14T12:34:43.074Z,100753.25
2023-08-14T12:37:45.334Z,100744.63
2023-08-14T12:40:47.667Z,100750.69
2023-08-14T12:43:50.124Z,100755.53
2023-08-14T12:46:54.766Z,100749.22
2023-08-14T12:49:58.233Z,100754.50
2023-08-14T12:53:00.544Z,100749.66
2023-08-14T12:56:03.915Z,100741.91
2023-08-14T12:59:07.977Z,100743.16
2023-08-14T13:02:10.328Z,100737.91
2023-08-14T13:05:12.691Z,100733.91
2023-08-14T13:08:15.034Z,100733.91
2023-08-14T13:11:19.422Z,100737.47
2023-08-14T13:14:21.739Z,100725.94
2023-08-14T13:17:24.253Z,100728.91
2023-08-14T13:20:26.618Z,100732.22
2023-08-14T13:23:29.024Z,100723.19
2023-08-14T13:26:34.129Z,100728.44
2023-08-14T13:29:38.574Z,100717.97
2023-08-14T13:32:41.414Z,100715.47
2023-08-14T13:35:44.228Z,100709.16
2023-08-14T13:38:46.525Z,100715.44
2023-08-14T13:41:48.692Z,100712.06
2023-08-14T13:44:51.457Z,100703.69
2023-08-14T13:47:56.373Z,100703.25
2023-08-14T13:50:59.488Z,100709.56
2023-08-14T13:54:01.963Z,100708.53
2023-08-14T13:57:04.298Z,100704.97
2023-08-14T14:00:07.289Z,100708.13
2023-08-14T14:03:11.103Z,100700.34
2023-08-14T14:06:13.514Z,100691.09
2023-08-14T14:09:15.665Z,100693.19
2023-08-14T14:12:17.970Z,100691.91
2023-08-14T14:15:20.401Z,100678.91
2023-08-14T14:18:22.696Z,100680.16
2023-08-14T14:21:24.868Z,100680.16
2023-08-14T14:24:27.766Z,100679.31
2023-08-14T14:27:30.043Z,100684.16
2023-08-14T14:30:32.245Z,100678.09
2023-08-14T14:33:34.553Z,100672.19
2023-08-14T14:36:36.980Z,100675.13
2023-08-14T14:39:39.316Z,100677.22
2023-08-14T14:42:41.563Z,100675.75
2023-08-14T14:45:43.754Z,100675.97
2023-08-14T14:48:45.978Z,100674.31
2023-08-14T14:51:48.810Z,100685.00
2023-08-14T14:54:51.141Z,100681.00
2023-08-14T14:57:53.316Z,100677.84
2023-08-14T15:00:55.527Z,100667.16
2023-08-14T15:03:57.941Z,100663.16
2023-08-14T15:07:00.235Z,100661.28
2023-08-14T15:10:02.318Z,100665.06
2023-08-14T15:13:04.583Z,100660.44
2023-08-14T15:16:06.930Z,100664.22
2023-08-14T15:19:09.134Z,100659.16
2023-08-14T15:22:11.274Z,100661.91
2023-08-14T15:25:13.683Z,100657.06
2023-08-14T15:28:16.021Z,100662.56
2023-08-14T15:31:18.194Z,100653.94
2023-08-14T15:34:20.359Z,100659.59
2023-08-14T15:37:22.672Z,100650.34
2023-08-14T15:40:25.686Z,100648.25
2023-08-14T15:43:28.050Z,100646.38
2023-08-14T15:46:30.237Z,100644.47
2023-08-14T15:49:32.421Z,100640.06
2023-08-14T15:52:34.511Z,100645.53
2023-08-14T15:55:39.842Z,100641.56
2023-08-14T15:58:42.098Z,100642.38
2023-08-14T16:01:44.214Z,100638.59
2023-08-14T16:04:46.694Z,100643.63
2023-08-14T16:07:48.972Z,100639.91
2023-08-14T16:10:51.105Z,100639.06
2023-08-14T16:13:53.234Z,100633.19
2023-08-14T16:16:55.596Z,100634.44
2023-08-14T16:19:57.956Z,100635.66
2023-08-14T16:23:00.253Z,100637.56
2023-08-14T16:26:02.407Z,100636.91
2023-08-14T16:29:04.928Z,100639.06
2023-08-14T16:32:07.267Z,100639.91
2023-08-14T16:35:09.529Z,100638.63
2023-08-14T16:38:11.828Z,100625.63
2023-08-14T16:41:14.081Z,100618.47
2023-08-14T16:44:16.228Z,100623.53
2023-08-14T16:47:18.776Z,100628.56
2023-08-14T16:50:21.299Z,100630.25
2023-08-14T16:53:23.434Z,100626.88
2023-08-14T16:56:25.582Z,100631.50
2023-08-14T16:59:27.859Z,100634.66
2023-08-14T17:02:30.062Z,100636.56
2023-08-14T17:05:32.948Z,100635.72
2023-08-14T17:08:37.062Z,100635.31
2023-08-14T17:11:40.632Z,100631.94
2023-08-14T17:14:45.201Z,100640.34
2023-08-14T17:17:47.618Z,100645.38
2023-08-14T17:20:49.913Z,100644.75
2023-08-14T17:23:52.047Z,100646.03
2023-08-14T17:26:54.238Z,100642.84
2023-08-14T17:29:56.589Z,100645.41
2023-08-14T17:32:59.011Z,100644.13
2023-08-14T17:36:01.231Z,100643.09
2023-08-14T17:39:04.565Z,100637.63
2023-08-14T17:42:06.743Z,100639.09
2023-08-14T17:45:09.031Z,100641.00
2023-08-14T17:48:11.345Z,100643.72
2023-08-14T17:51:13.621Z,100650.88
2023-08-14T17:54:15.922Z,100645.81
2023-08-14T17:57:18.020Z,100648.31
2023-08-14T18:00:20.230Z,100659.66
2023-08-14T18:03:22.596Z,100659.84
2023-08-14T18:06:25.445Z,100668.88
2023-08-14T18:09:27.682Z,100667.19
2023-08-14T18:12:29.892Z,100672.44
2023-08-14T18:15:32.115Z,100678.94
2023-08-14T18:18:34.386Z,100680.41
2023-08-14T18:21:37.025Z,100685.63
2023-08-14T18:24:39.276Z,100683.97
2023-08-14T18:27:41.493Z,100686.03
2023-08-14T18:30:43.804Z,100686.44
2023-08-14T18:33:45.914Z,100695.28
2023-08-14T18:36:48.162Z,100698.19
2023-08-14T18:39:50.352Z,100702.78
2023-08-14T18:42:52.524Z,100699.84
2023-08-14T18:45:54.989Z,100704.44
2023-08-14T18:48:57.340Z,100706.69
2023-08-14T18:51:59.542Z,100703.13
2023-08-14T18:55:04.768Z,100712.28
2023-08-14T18:58:07.593Z,100715.63
2023-08-14T19:01:09.977Z,100720.00
2023-08-14T19:04:12.478Z,100720.41
2023-08-14T19:07:14.904Z,100715.59
2023-08-14T19:10:17.091Z,100732.06
2023-08-14T19:13:19.235Z,100725.38
2023-08-14T19:16:21.444Z,100728.47
2023-08-14T19:19:23.624Z,100728.88
2023-08-14T19:22:25.984Z,100727.63
2023-08-14T19:25:28.224Z,100724.25
2023-08-14T19:28:30.366Z,100731.09
2023-08-14T19:31:32.749Z,100729.81
2023-08-14T19:34:35.043Z,100729.38
2023-08-14T19:37:37.315Z,100736.44
2023-08-14T19:40:39.598Z,100739.56
2023-08-14T19:43:41.846Z,100739.16
2023-08-14T19:46:44.277Z,100737.00
2023-08-14T19:49:46.823Z,100742.84
2023-08-14T19:52:49.120Z,100744.91
2023-08-14T19:55:51.454Z,100749.72
2023-08-14T19:58:53.699Z,100747.41
2023-08-14T20:01:57.496Z,100743.97
2023-08-14T20:04:59.758Z,100746.00
2023-08-14T20:08:01.992Z,100750.91
2023-08-14T20:11:04.804Z,100750.78
2023-08-14T20:14:08.727Z,100753.84
2023-08-14T20:17:10.974Z,100749.16
2023-08-14T20:20:20.436Z,100749.47
2023-08-14T20:23:23.258Z,100749.22
2023-08-14T20:26:25.541Z,100740.34
2023-08-14T20:29:33.859Z,100750.31
2023-08-14T20:32:36.564Z,100753.09
2023-08-14T20:35:45.849Z,100743.84
2023-08-14T20:38:48.734Z,100744.59
2023-08-14T20:41:51.054Z,100746.66
2023-08-14T20:44:53.307Z,100756.22
2023-08-14T20:47:56.181Z,100756.97
2023-08-14T20:51:01.066Z,100755.66
2023-08-14T20:54:03.602Z,100755.41
2023-08-14T20:57:05.892Z,100752.41
2023-08-14T21:00:08.818Z,100752.16
2023-08-14T21:03:16.125Z,100759.63
2023-08-14T21:06:18.916Z,100752.69
2023-08-14T21:09:21.609Z,100747.47
2023-08-14T21:12:23.906Z,100755.34
2023-08-14T21:15:26.346Z,100742.97
2023-08-14T21:18:29.886Z,100736.72
2023-08-14T21:21:32.273Z,100743.81
2023-08-14T21:24:34.535Z,100734.38
2023-08-14T21:27:36.795Z,100743.88
2023-08-14T21:30:39.023Z,100733.41
2023-08-14T21:33:41.264Z,100738.19
2023-08-14T21:36:43.948Z,100739.56
2023-08-14T21:39:46.214Z,100739.75
2023-08-14T21:42:48.592Z,100737.22
2023-08-14T21:45:50.863Z,100740.97
2023-08-14T21:48:53.182Z,100740.31
2023-08-14T21:51:55.549Z,100742.38
2023-08-14T21:54:58.235Z,100740.69
2023-08-14T21:58:00.521Z,100745.28
2023-08-14T22:01:02.827Z,100748.00
2023-08-14T22:04:05.357Z,100749.50
2023-08-14T22:07:07.622Z,100738.47
2023-08-14T22:10:11.135Z,100733.59
2023-08-14T22:13:13.519Z,100731.41
2023-08-14T22:16:15.775Z,100739.38
2023-08-14T22:19:18.124Z,100743.47
2023-08-14T22:22:20.447Z,100737.97
2023-08-14T22:25:23.005Z,100741.22
2023-08-14T22:28:25.401Z,100742.06
2023-08-14T22:31:27.710Z,100731.41
2023-08-14T22:34:29.997Z,100728.06
2023-08-14T22:37:32.249Z,100729.91
2023-08-14T22:40:34.539Z,100724.00
2023-08-14T22:43:36.789Z,100727.38
2023-08-14T22:46:39.017Z,100727.38
2023-08-14T22:49:41.263Z,100727.00
2023-08-14T22:52:43.530Z,100730.75
2023-08-14T22:55:48.399Z,100723.66
2023-08-14T22:58:50.690Z,100729.44
2023-08-14T23:01:52.982Z,100724.19
2023-08-14T23:04:55.239Z,100726.91
2023-08-14T23:07:57.545Z,100729.13
2023-08-14T23:10:59.770Z,100721.00
2023-08-14T23:14:02.001Z,100726.06
2023-08-14T23:17:04.465Z,100719.78
2023-08-14T23:20:06.966Z,100726.41
2023-08-14T23:23:09.174Z,100721.41
2023-08-14T23:26:11.539Z,100721.75
2023-08-14T23:29:14.172Z,100714.81
2023-08-14T23:32:16.318Z,100722.28
2023-08-14T23:35:18.702Z,100715.06
2023-08-14T23:38:21.021Z,100716.44
2023-08-14T23:41:23.270Z,100722.88
2023-08-14T23:44:25.641Z,100720.72
2023-08-14T23:47:27.925Z,100723.31
2023-08-14T23:50:30.139Z,100716.88
2023-08-14T23:53:32.569Z,100724.03
2023-08-14T23:56:34.853Z,100724.03
2023-08-14T23:59:37.111Z,100720.31
